Observation data for Aspermont on 03/22/2019      Previous  Date  Next       Current Mesonet Observations  Soil Data  Daily Summary Page  Observations in Plain Language
KASR 220500Z 11006KT 12/02 A3015 RMK A01 T01230019  RH  050%=      5-min Rain = 0
KASR 220505Z 12006KT 12/02 A3015 RMK A01 T01240019  RH  049%=      5-min Rain = 0
KASR 220510Z 13007KT 13/02 A3015 RMK A01 T01250018  RH  049%=      5-min Rain = 0
KASR 220515Z 12007KT 12/02 A3015 RMK A01 T01240020  RH  050%=      5-min Rain = 0
KASR 220520Z 12007KT 12/02 A3014 RMK A01 T01210021  RH  051%=      5-min Rain = 0
KASR 220525Z 12007KT 12/02 A3014 RMK A01 T01210021  RH  051%=      5-min Rain = 0
KASR 220530Z 12006KT 12/02 A3015 RMK A01 T01220021  RH  051%=      5-min Rain = 0
KASR 220535Z 12007KT 12/02 A3015 RMK A01 T01240022  RH  050%=      5-min Rain = 0
KASR 220540Z 12006KT 12/02 A3015 RMK A01 T01240023  RH  051%=      5-min Rain = 0
KASR 220545Z 12006KT 12/02 A3015 RMK A01 T01240024  RH  051%=      5-min Rain = 0
KASR 220550Z 12006KT 12/02 A3015 RMK A01 T01240023  RH  051%=      5-min Rain = 0
KASR 220555Z 12006KT 12/02 A3015 RMK A01 T01230024  RH  051%=      5-min Rain = 0
KASR 220600Z 11006KT 12/02 A3014 RMK A01 T01220024  RH  052%=      5-min Rain = 0
KASR 220605Z 12006KT 12/02 A3014 RMK A01 T01230023  RH  051%=      5-min Rain = 0
KASR 220610Z 12005KT 12/02 A3014 RMK A01 T01220024  RH  052%=      5-min Rain = 0
KASR 220615Z 12006KT 12/02 A3015 RMK A01 T01190024  RH  053%=      5-min Rain = 0
KASR 220620Z 13005KT 12/02 A3015 RMK A01 T01170024  RH  054%=      5-min Rain = 0
KASR 220625Z 13005KT 11/02 A3014 RMK A01 T01140024  RH  055%=      5-min Rain = 0
KASR 220630Z 13004KT 11/02 A3015 RMK A01 T01120024  RH  056%=      5-min Rain = 0
KASR 220635Z 14004KT 11/03 A3015 RMK A01 T01100025  RH  056%=      5-min Rain = 0
KASR 220640Z 13004KT 11/02 A3015 RMK A01 T01070024  RH  057%=      5-min Rain = 0
KASR 220645Z 13005KT 10/02 A3015 RMK A01 T01040024  RH  058%=      5-min Rain = 0
KASR 220650Z 13004KT 10/02 A3014 RMK A01 T01010024  RH  059%=      5-min Rain = 0
KASR 220655Z 14005KT 10/02 A3014 RMK A01 T01020024  RH  059%=      5-min Rain = 0
KASR 220700Z 14006KT 10/03 A3014 RMK A01 T01040025  RH  058%=      5-min Rain = 0
KASR 220705Z 14006KT 11/03 A3014 RMK A01 T01050025  RH  058%=      5-min Rain = 0
KASR 220710Z 14007KT 11/03 A3014 RMK A01 T01060026  RH  058%=      5-min Rain = 0
KASR 220715Z 14007KT 11/03 A3013 RMK A01 T01060026  RH  058%=      5-min Rain = 0
KASR 220720Z 13008KT 11/03 A3013 RMK A01 T01090026  RH  057%=      5-min Rain = 0
KASR 220725Z 14008KT 11/03 A3013 RMK A01 T01110027  RH  057%=      5-min Rain = 0
KASR 220730Z 14007KT 11/03 A3013 RMK A01 T01130027  RH  056%=      5-min Rain = 0
KASR 220735Z 13006KT 11/03 A3013 RMK A01 T01120028  RH  057%=      5-min Rain = 0
KASR 220740Z 13006KT 11/03 A3013 RMK A01 T01110028  RH  058%=      5-min Rain = 0
KASR 220745Z 13006KT 11/03 A3013 RMK A01 T01100028  RH  058%=      5-min Rain = 0
KASR 220750Z 14005KT 11/03 A3013 RMK A01 T01090028  RH  058%=      5-min Rain = 0
KASR 220755Z 13007KT 11/03 A3012 RMK A01 T01080027  RH  058%=      5-min Rain = 0
KASR 220800Z 13007KT 11/03 A3012 RMK A01 T01090027  RH  058%=      5-min Rain = 0
KASR 220805Z 13006KT 11/03 A3012 RMK A01 T01100027  RH  057%=      5-min Rain = 0
KASR 220810Z 12006KT 11/03 A3011 RMK A01 T01080028  RH  058%=      5-min Rain = 0
KASR 220815Z 13006KT 11/03 A3011 RMK A01 T01060028  RH  059%=      5-min Rain = 0
KASR 220820Z 13005KT 11/03 A3011 RMK A01 T01070028  RH  059%=      5-min Rain = 0
KASR 220825Z 13004KT 11/03 A3011 RMK A01 T01050028  RH  059%=      5-min Rain = 0
KASR 220830Z 13003KT 10/03 A3011 RMK A01 T01030028  RH  060%=      5-min Rain = 0
KASR 220835Z 13003KT 10/03 A3011 RMK A01 T01010027  RH  061%=      5-min Rain = 0
KASR 220840Z 13005KT 10/03 A3011 RMK A01 T00990027  RH  062%=      5-min Rain = 0
KASR 220845Z 14005KT 10/03 A3011 RMK A01 T00970028  RH  063%=      5-min Rain = 0
KASR 220850Z 15004KT 10/03 A3011 RMK A01 T00960028  RH  063%=      5-min Rain = 0
KASR 220855Z 15003KT 10/03 A3011 RMK A01 T00960028  RH  064%=      5-min Rain = 0
KASR 220900Z 13003KT 09/03 A3011 RMK A01 T00920027  RH  065%=      5-min Rain = 0
KASR 220905Z 13001KT 09/03 A3011 RMK A01 T00890027  RH  066%=      5-min Rain = 0
KASR 220910Z 32000KT 08/02 A3011 RMK A01 T00840024  RH  067%=      5-min Rain = 0
KASR 220915Z 29001KT 08/02 A3011 RMK A01 T00760023  RH  070%=      5-min Rain = 0
KASR 220920Z 29001KT 07/02 A3011 RMK A01 T00740023  RH  071%=      5-min Rain = 0
KASR 220925Z 30001KT 07/02 A3011 RMK A01 T00740024  RH  072%=      5-min Rain = 0
KASR 220930Z 01001KT 07/02 A301 RMK A01 T00740022  RH  071%=      5-min Rain = 0
KASR 220935Z 04001KT 07/02 A301 RMK A01 T00720021  RH  071%=      5-min Rain = 0
KASR 220940Z 03002KT 07/02 A3011 RMK A01 T00720021  RH  071%=      5-min Rain = 0
KASR 220945Z 04001KT 07/02 A3011 RMK A01 T00710022  RH  071%=      5-min Rain = 0
KASR 220950Z 04001KT 07/02 A3011 RMK A01 T00720022  RH  072%=      5-min Rain = 0
KASR 220955Z 04000KT 07/02 A3011 RMK A01 T00710021  RH  072%=      5-min Rain = 0
KASR 221000Z 00000KT 07/02 A3011 RMK A01 T00720022  RH  072%=      5-min Rain = 0
KASR 221005Z 01000KT 07/02 A3011 RMK A01 T00720022  RH  072%=      5-min Rain = 0
KASR 221010Z 00001KT 07/02 A3011 RMK A01 T00720023  RH  072%=      5-min Rain = 0
KASR 221015Z 34000KT 07/02 A3011 RMK A01 T00710021  RH  072%=      5-min Rain = 0
KASR 221020Z 02001KT 07/02 A3011 RMK A01 T00670021  RH  073%=      5-min Rain = 0
KASR 221025Z 06002KT 07/02 A3011 RMK A01 T00670022  RH  074%=      5-min Rain = 0
KASR 221030Z 10002KT 07/02 A3011 RMK A01 T00690023  RH  073%=      5-min Rain = 0
KASR 221035Z 10004KT 07/02 A301 RMK A01 T00700023  RH  073%=      5-min Rain = 0
KASR 221040Z 11005KT 07/02 A3011 RMK A01 T00710023  RH  072%=      5-min Rain = 0
KASR 221045Z 11006KT 07/02 A301 RMK A01 T00730023  RH  071%=      5-min Rain = 0
KASR 221050Z 12006KT 08/02 A301 RMK A01 T00750022  RH  070%=      5-min Rain = 0
KASR 221055Z 12005KT 08/02 A301 RMK A01 T00800022  RH  068%=      5-min Rain = 0
KASR 221100Z 13005KT 09/02 A301 RMK A01 T00850021  RH  065%=      5-min Rain = 0
KASR 221105Z 13005KT 09/02 A301 RMK A01 T00880021  RH  064%=      5-min Rain = 0
KASR 221110Z 13006KT 09/02 A301 RMK A01 T00850022  RH  065%=      5-min Rain = 0
KASR 221115Z 13005KT 09/02 A3011 RMK A01 T00860019  RH  064%=      5-min Rain = 0
KASR 221120Z 14005KT 09/02 A3011 RMK A01 T00880018  RH  062%=      5-min Rain = 0
KASR 221125Z 13004KT 09/02 A3011 RMK A01 T00890018  RH  062%=      5-min Rain = 0
KASR 221130Z 13004KT 09/02 A3011 RMK A01 T00890018  RH  062%=      5-min Rain = 0
KASR 221135Z 13004KT 09/02 A3011 RMK A01 T00860019  RH  063%=      5-min Rain = 0
KASR 221140Z 13004KT 09/02 A3012 RMK A01 T00850020  RH  064%=      5-min Rain = 0
KASR 221145Z 14004KT 08/02 A3012 RMK A01 T00840021  RH  066%=      5-min Rain = 0
KASR 221150Z 14005KT 08/02 A3012 RMK A01 T00810022  RH  067%=      5-min Rain = 0
KASR 221155Z 13006KT 08/02 A3012 RMK A01 T00800023  RH  068%=      5-min Rain = 0
KASR 221200Z 13006KT 08/02 A3012 RMK A01 T00830023  RH  067%=      5-min Rain = 0
KASR 221205Z 13006KT 09/02 A3012 RMK A01 T00870023  RH  065%=      5-min Rain = 0
KASR 221210Z 13005KT 09/02 A3012 RMK A01 T00900022  RH  063%=      5-min Rain = 0
KASR 221215Z 13005KT 09/02 A3012 RMK A01 T00910021  RH  063%=      5-min Rain = 0
KASR 221220Z 13005KT 09/02 A3012 RMK A01 T00910021  RH  063%=      5-min Rain = 0
KASR 221225Z 14004KT 09/02 A3012 RMK A01 T00910021  RH  062%=      5-min Rain = 0
KASR 221230Z 15003KT 09/02 A3013 RMK A01 T00910021  RH  062%=      5-min Rain = 0
KASR 221235Z 14003KT 09/02 A3013 RMK A01 T00900021  RH  062%=      5-min Rain = 0
KASR 221240Z 15002KT 09/02 A3013 RMK A01 T00900022  RH  063%=      5-min Rain = 0
KASR 221245Z 16002KT 08/02 A3013 RMK A01 T00830023  RH  067%=      5-min Rain = 0
KASR 221250Z 19001KT 08/03 A3013 RMK A01 T00780025  RH  070%=      5-min Rain = 0
KASR 221255Z 18001KT 08/03 A3013 RMK A01 T00780025  RH  070%=      5-min Rain = 0
KASR 221300Z 20002KT 08/03 A3014 RMK A01 T00780026  RH  071%=      5-min Rain = 0
KASR 221305Z 21003KT 08/03 A3014 RMK A01 T00780029  RH  072%=      5-min Rain = 0
KASR 221310Z 21003KT 08/03 A3014 RMK A01 T00790030  RH  072%=      5-min Rain = 0
KASR 221315Z 20001KT 08/03 A3014 RMK A01 T00820029  RH  070%=      5-min Rain = 0
KASR 221320Z 20001KT 08/03 A3014 RMK A01 T00840033  RH  071%=      5-min Rain = 0
KASR 221325Z 26001KT 09/04 A3014 RMK A01 T00850039  RH  074%=      5-min Rain = 0
KASR 221330Z 31001KT 08/04 A3014 RMK A01 T00840039  RH  074%=      5-min Rain = 0
KASR 221335Z 00000KT 08/04 A3014 RMK A01 T00830040  RH  075%=      5-min Rain = 0
KASR 221340Z 14001KT 08/04 A3014 RMK A01 T00840043  RH  077%=      5-min Rain = 0
KASR 221345Z 12003KT 09/04 A3014 RMK A01 T00890044  RH  074%=      5-min Rain = 0
KASR 221350Z 12003KT 10/04 A3014 RMK A01 T00960040  RH  069%=      5-min Rain = 0
KASR 221355Z 14002KT 10/05 A3014 RMK A01 T00990046  RH  071%=      5-min Rain = 0
KASR 221400Z 14003KT 10/04 A3014 RMK A01 T01040036  RH  064%=      5-min Rain = 0
KASR 221405Z 14004KT 11/03 A3014 RMK A01 T01080031  RH  060%=      5-min Rain = 0
KASR 221410Z 14004KT 11/03 A3014 RMK A01 T01090031  RH  059%=      5-min Rain = 0
KASR 221415Z 14005KT 11/03 A3014 RMK A01 T01120031  RH  058%=      5-min Rain = 0
KASR 221420Z 15006KT 11/03 A3014 RMK A01 T01140030  RH  057%=      5-min Rain = 0
KASR 221425Z 15006KT 12/03 A3014 RMK A01 T01160033  RH  057%=      5-min Rain = 0
KASR 221430Z 15007KT 12/03 A3014 RMK A01 T01170034  RH  058%=      5-min Rain = 0
KASR 221435Z 15008KT 12/03 A3014 RMK A01 T01190034  RH  057%=      5-min Rain = 0
KASR 221440Z 15007KT 12/03 A3014 RMK A01 T01220034  RH  056%=      5-min Rain = 0
KASR 221445Z 15007KT 12/03 A3014 RMK A01 T01240034  RH  055%=      5-min Rain = 0
KASR 221450Z 14007KT 13/04 A3013 RMK A01 T01270036  RH  055%=      5-min Rain = 0
KASR 221455Z 14007KT 13/04 A3013 RMK A01 T01300037  RH  054%=      5-min Rain = 0
KASR 221500Z 14007KT 13/04 A3013 RMK A01 T01320040  RH  054%=      5-min Rain = 0
KASR 221505Z 14008KT 14/04 A3012 RMK A01 T01350044  RH  055%=      5-min Rain = 0
KASR 221510Z 13008KT 14/05 A3012 RMK A01 T01370047  RH  055%=      5-min Rain = 0
KASR 221515Z 13009KT 14/05 A3012 RMK A01 T01390051  RH  056%=      5-min Rain = 0
KASR 221520Z 14010KT 14/06 A3011 RMK A01 T01430058  RH  057%=      5-min Rain = 0
KASR 221525Z 14010KT 15/06 A3011 RMK A01 T01450060  RH  057%=      5-min Rain = 0
KASR 221530Z 15011G16KT 15/06 A3011 RMK A01 T01480063  RH  058%=      5-min Rain = 0
KASR 221535Z 15011KT 15/07 A3011 RMK A01 T01510068  RH  058%=      5-min Rain = 0
KASR 221540Z 15012G17KT 15/07 A3011 RMK A01 T01540070  RH  058%=      5-min Rain = 0
KASR 221545Z 15011KT 16/08 A3011 RMK A01 T01580075  RH  059%=      5-min Rain = 0
KASR 221550Z 15010G16KT 16/08 A3011 RMK A01 T01620079  RH  059%=      5-min Rain = 0
KASR 221555Z 16011G17KT 17/08 A3012 RMK A01 T01650080  RH  058%=      5-min Rain = 0
KASR 221600Z 15011KT 17/08 A3012 RMK A01 T01660081  RH  058%=      5-min Rain = 0
KASR 221605Z 16009KT 17/08 A3012 RMK A01 T01680084  RH  058%=      5-min Rain = 0
KASR 221610Z 17010G15KT 17/09 A3013 RMK A01 T01700087  RH  059%=      5-min Rain = 0
KASR 221615Z 17011KT 17/09 A3013 RMK A01 T01710090  RH  060%=      5-min Rain = 0
KASR 221620Z 17011KT 17/09 A3013 RMK A01 T01720091  RH  060%=      5-min Rain = 0
KASR 221625Z 17012KT 17/09 A3013 RMK A01 T01720092  RH  060%=      5-min Rain = 0
KASR 221630Z 16011KT 17/09 A3013 RMK A01 T01730092  RH  060%=      5-min Rain = 0
KASR 221635Z 16013G18KT 17/09 A3012 RMK A01 T01730092  RH  060%=      5-min Rain = 0
KASR 221640Z 16011KT 17/09 A3012 RMK A01 T01730093  RH  060%=      5-min Rain = 0
KASR 221645Z 16010KT 17/10 A3011 RMK A01 T01730095  RH  061%=      5-min Rain = 0
KASR 221650Z 16012G17KT 17/10 A3011 RMK A01 T01730095  RH  061%=      5-min Rain = 0
KASR 221655Z 16013KT 17/10 A301 RMK A01 T01720095  RH  062%=      5-min Rain = 0
KASR 221700Z 15012G18KT 17/10 A3009 RMK A01 T01720096  RH  062%=      5-min Rain = 0
KASR 221705Z 14013G18KT 17/10 A3008 RMK A01 T01710095  RH  062%=      5-min Rain = 0
KASR 221710Z 13014G22KT 17/10 A3007 RMK A01 T01700095  RH  063%=      5-min Rain = 0
KASR 221715Z 13016G24KT 17/10 A3005 RMK A01 T01710096  RH  062%=      5-min Rain = 0
KASR 221720Z 14016G26KT 17/10 A3004 RMK A01 T01720098  RH  063%=      5-min Rain = 0
KASR 221725Z 14016G23KT 17/10 A3004 RMK A01 T01740100  RH  063%=      5-min Rain = 0
KASR 221730Z 14015G22KT 17/10 A3003 RMK A01 T01740101  RH  063%=      5-min Rain = 0
KASR 221735Z 15015G22KT 18/10 A3002 RMK A01 T01750102  RH  063%=      5-min Rain = 0
KASR 221740Z 15017G24KT 18/10 A3002 RMK A01 T01770103  RH  063%=      5-min Rain = 0
KASR 221745Z 15014G20KT 18/10 A3002 RMK A01 T01780103  RH  063%=      5-min Rain = 0
KASR 221750Z 15014G20KT 18/10 A3002 RMK A01 T01770103  RH  063%=      5-min Rain = 0
KASR 221755Z 15015G22KT 18/10 A3002 RMK A01 T01770104  RH  063%=      5-min Rain = 0
KASR 221800Z 14016G22KT 18/10 A30 RMK A01 T01760103  RH  063%=      5-min Rain = 0
KASR 221805Z 15015G25KT 18/10 A30 RMK A01 T01760103  RH  063%=      5-min Rain = 0
KASR 221810Z 15016G23KT 18/10 A3001 RMK A01 T01750103  RH  064%=      5-min Rain = 0
KASR 221815Z 14016G23KT 17/10 A30 RMK A01 T01730104  RH  065%=      5-min Rain = 0
KASR 221820Z 14018G27KT 17/10 A2998 RMK A01 T01740103  RH  064%=      5-min Rain = 0
KASR 221825Z 14020G31KT 18/10 A2996 RMK A01 T01760104  RH  064%=      5-min Rain = 0
KASR 221830Z 15019G29KT 18/11 A2996 RMK A01 T01750105  RH  065%=      5-min Rain = 0
KASR 221835Z 16023G30KT 18/11 A2996 RMK A01 T01780106  RH  064%=      5-min Rain = 0
KASR 221840Z 16022G30KT 18/11 A2998 RMK A01 T01780106  RH  064%=      5-min Rain = 0
KASR 221845Z 16019G25KT 18/11 A2999 RMK A01 T01790105  RH  063%=      5-min Rain = 0
KASR 221850Z 16020G31KT 18/10 A2999 RMK A01 T01790104  RH  062%=      5-min Rain = 0
KASR 221855Z 15014G20KT 18/11 A30 RMK A01 T01790106  RH  063%=      5-min Rain = 0
KASR 221900Z 15019G28KT 18/11 A2999 RMK A01 T01810107  RH  063%=      5-min Rain = 0
KASR 221905Z 16020G26KT 19/11 A30 RMK A01 T01860110  RH  063%=      5-min Rain = 0
KASR 221910Z 16017G28KT 19/11 A30 RMK A01 T01890112  RH  062%=      5-min Rain = 0
KASR 221915Z 16018G28KT 19/11 A30 RMK A01 T01870110  RH  062%=      5-min Rain = 0
KASR 221920Z 16015G22KT 19/11 A30 RMK A01 T01860111  RH  063%=      5-min Rain = 0
KASR 221925Z 16016G23KT 19/11 A30 RMK A01 T01860110  RH  062%=      5-min Rain = 0
KASR 221930Z 16017G24KT 19/11 A3001 RMK A01 T01890111  RH  061%=      5-min Rain = 0
KASR 221935Z 16016G21KT 19/11 A3001 RMK A01 T01910111  RH  061%=      5-min Rain = 0
KASR 221940Z 17017G24KT 19/11 A3001 RMK A01 T01930110  RH  060%=      5-min Rain = 0
KASR 221945Z 16017G24KT 19/11 A30 RMK A01 T01940110  RH  059%=      5-min Rain = 0
KASR 221950Z 16018G23KT 20/11 A30 RMK A01 T02000112  RH  058%=      5-min Rain = 0
KASR 221955Z 16015G23KT 21/12 A30 RMK A01 T02110117  RH  056%=      5-min Rain = 0
KASR 222000Z 15017G25KT 22/12 A30 RMK A01 T02160116  RH  054%=      5-min Rain = 0
KASR 222005Z 16019G27KT 22/11 A2999 RMK A01 T02160112  RH  052%=      5-min Rain = 0
KASR 222010Z 16018G27KT 21/11 A2999 RMK A01 T02120111  RH  053%=      5-min Rain = 0
KASR 222015Z 17020G25KT 21/11 A2999 RMK A01 T02130110  RH  053%=      5-min Rain = 0
KASR 222020Z 17019G25KT 22/11 A2999 RMK A01 T02150108  RH  051%=      5-min Rain = 0
KASR 222025Z 17019G24KT 21/11 A2999 RMK A01 T02140110  RH  052%=      5-min Rain = 0
KASR 222030Z 17017G24KT 22/11 A2999 RMK A01 T02170112  RH  052%=      5-min Rain = 0
KASR 222035Z 16016G21KT 22/11 A2999 RMK A01 T02190113  RH  052%=      5-min Rain = 0
KASR 222040Z 16017G24KT 22/11 A2999 RMK A01 T02150109  RH  052%=      5-min Rain = 0
KASR 222045Z 17018G24KT 22/11 A2998 RMK A01 T02160109  RH  051%=      5-min Rain = 0
KASR 222050Z 16017G23KT 22/11 A2998 RMK A01 T02190111  RH  051%=      5-min Rain = 0
KASR 222055Z 16018KT 22/11 A2998 RMK A01 T02180109  RH  051%=      5-min Rain = 0
KASR 222100Z 16017G23KT 22/11 A2998 RMK A01 T02180109  RH  051%=      5-min Rain = 0
KASR 222105Z 16015G20KT 22/11 A2998 RMK A01 T02150108  RH  052%=      5-min Rain = 0
KASR 222110Z 16015G21KT 21/11 A2998 RMK A01 T02130109  RH  052%=      5-min Rain = 0
KASR 222115Z 16015G20KT 21/11 A2998 RMK A01 T02140109  RH  052%=      5-min Rain = 0
KASR 222120Z 15011G20KT 22/11 A2998 RMK A01 T02160112  RH  052%=      5-min Rain = 0
KASR 222125Z 16016G22KT 22/11 A2997 RMK A01 T02180107  RH  050%=      5-min Rain = 0
KASR 222130Z 16015G21KT 22/11 A2997 RMK A01 T02200107  RH  050%=      5-min Rain = 0
KASR 222135Z 16013G18KT 22/11 A2997 RMK A01 T02190108  RH  050%=      5-min Rain = 0
KASR 222140Z 16013G18KT 22/11 A2997 RMK A01 T02200109  RH  050%=      5-min Rain = 0
KASR 222145Z 16012KT 22/11 A2996 RMK A01 T02220110  RH  050%=      5-min Rain = 0
KASR 222150Z 15011KT 22/11 A2996 RMK A01 T02210109  RH  050%=      5-min Rain = 0
KASR 222155Z 15012KT 22/11 A2996 RMK A01 T02190107  RH  050%=      5-min Rain = 0
KASR 222200Z 16011KT 22/11 A2996 RMK A01 T02170108  RH  051%=      5-min Rain = 0
KASR 222205Z 15009KT 22/11 A2996 RMK A01 T02170108  RH  051%=      5-min Rain = 0
KASR 222210Z 14009G15KT 22/11 A2995 RMK A01 T02200109  RH  050%=      5-min Rain = 0
KASR 222215Z 15011G16KT 22/11 A2995 RMK A01 T02210110  RH  050%=      5-min Rain = 0
KASR 222220Z 15011G17KT 22/11 A2995 RMK A01 T02200110  RH  051%=      5-min Rain = 0
KASR 222225Z 16010KT 22/11 A2995 RMK A01 T02190110  RH  051%=      5-min Rain = 0
KASR 222230Z 16010KT 22/11 A2995 RMK A01 T02210110  RH  050%=      5-min Rain = 0
KASR 222235Z 16011G16KT 22/11 A2995 RMK A01 T02220112  RH  050%=      5-min Rain = 0
KASR 222240Z 16011KT 22/11 A2995 RMK A01 T02220113  RH  051%=      5-min Rain = 0
KASR 222245Z 17010KT 22/12 A2994 RMK A01 T02210115  RH  052%=      5-min Rain = 0
KASR 222250Z 16013G18KT 22/11 A2994 RMK A01 T02210114  RH  051%=      5-min Rain = 0
KASR 222255Z 17015KT 22/12 A2994 RMK A01 T02200116  RH  052%=      5-min Rain = 0
KASR 222300Z 17013G20KT 22/12 A2994 RMK A01 T02190117  RH  053%=      5-min Rain = 0
KASR 222305Z 17013G21KT 22/12 A2994 RMK A01 T02180116  RH  053%=      5-min Rain = 0
KASR 222310Z 17013KT 22/12 A2994 RMK A01 T02190115  RH  053%=      5-min Rain = 0
KASR 222315Z 16012G18KT 22/12 A2994 RMK A01 T02190115  RH  053%=      5-min Rain = 0
KASR 222320Z 17012KT 22/12 A2993 RMK A01 T02180115  RH  053%=      5-min Rain = 0
KASR 222325Z 16011KT 22/12 A2993 RMK A01 T02170115  RH  053%=      5-min Rain = 0
KASR 222330Z 16012G18KT 22/11 A2993 RMK A01 T02180114  RH  052%=      5-min Rain = 0
KASR 222335Z 15011G17KT 22/11 A2993 RMK A01 T02180113  RH  052%=      5-min Rain = 0
KASR 222340Z 16013KT 22/11 A2993 RMK A01 T02170112  RH  052%=      5-min Rain = 0
KASR 222345Z 16012KT 22/11 A2993 RMK A01 T02170112  RH  052%=      5-min Rain = 0
KASR 222350Z 15012G17KT 22/11 A2993 RMK A01 T02160111  RH  052%=      5-min Rain = 0
KASR 222355Z 15012G17KT 22/11 A2992 RMK A01 T02160111  RH  052%=      5-min Rain = 0
KASR 230000Z 15011KT 22/11 A2992 RMK A01 T02150111  RH  052%=      5-min Rain = 0
KASR 230005Z 15012G18KT 22/11 A2992 RMK A01 T02150110  RH  052%=      5-min Rain = 0
KASR 230010Z 15011G18KT 22/11 A2992 RMK A01 T02150111  RH  052%=      5-min Rain = 0
KASR 230015Z 15010KT 22/11 A2993 RMK A01 T02150112  RH  053%=      5-min Rain = 0
KASR 230020Z 15009G14KT 21/11 A2993 RMK A01 T02130112  RH  053%=      5-min Rain = 0
KASR 230025Z 15010G15KT 21/11 A2994 RMK A01 T02120111  RH  053%=      5-min Rain = 0
KASR 230030Z 15009KT 21/11 A2994 RMK A01 T02120111  RH  054%=      5-min Rain = 0
KASR 230035Z 16009KT 21/11 A2994 RMK A01 T02110110  RH  054%=      5-min Rain = 0
KASR 230040Z 16009G14KT 21/11 A2994 RMK A01 T02100110  RH  054%=      5-min Rain = 0
KASR 230045Z 16009KT 21/11 A2994 RMK A01 T02090110  RH  054%=      5-min Rain = 0
KASR 230050Z 15009KT 21/11 A2993 RMK A01 T02080109  RH  054%=      5-min Rain = 0
KASR 230055Z 14010KT 21/11 A2993 RMK A01 T02070109  RH  054%=      5-min Rain = 0
KASR 230100Z 15010KT 21/11 A2993 RMK A01 T02050108  RH  055%=      5-min Rain = 0
KASR 230105Z 15009G15KT 20/11 A2994 RMK A01 T02030108  RH  055%=      5-min Rain = 0
KASR 230110Z 16009KT 20/11 A2994 RMK A01 T02010108  RH  056%=      5-min Rain = 0
KASR 230115Z 16010KT 20/11 A2993 RMK A01 T02010108  RH  056%=      5-min Rain = 0
KASR 230120Z 16010KT 20/11 A2993 RMK A01 T02010108  RH  056%=      5-min Rain = 0
KASR 230125Z 15009KT 20/11 A2993 RMK A01 T01990107  RH  057%=      5-min Rain = 0
KASR 230130Z 15010KT 20/11 A2993 RMK A01 T01980107  RH  057%=      5-min Rain = 0
KASR 230135Z 15008KT 20/11 A2993 RMK A01 T01950107  RH  058%=      5-min Rain = 0
KASR 230140Z 15008KT 19/11 A2993 RMK A01 T01930107  RH  059%=      5-min Rain = 0
KASR 230145Z 16007KT 19/11 A2994 RMK A01 T01890107  RH  060%=      5-min Rain = 0
KASR 230150Z 15007KT 19/11 A2994 RMK A01 T01880108  RH  061%=      5-min Rain = 0
KASR 230155Z 15007KT 19/11 A2994 RMK A01 T01870108  RH  061%=      5-min Rain = 0
KASR 230200Z 15007KT 19/11 A2994 RMK A01 T01850108  RH  062%=      5-min Rain = 0
KASR 230205Z 15008KT 19/11 A2994 RMK A01 T01850108  RH  062%=      5-min Rain = 0
KASR 230210Z 15009KT 19/11 A2994 RMK A01 T01850109  RH  062%=      5-min Rain = 0
KASR 230215Z 15008KT 19/11 A2994 RMK A01 T01850109  RH  062%=      5-min Rain = 0
KASR 230220Z 15008KT 18/11 A2995 RMK A01 T01840109  RH  063%=      5-min Rain = 0
KASR 230225Z 15008KT 18/11 A2995 RMK A01 T01830109  RH  063%=      5-min Rain = 0
KASR 230230Z 15010KT 19/11 A2995 RMK A01 T01860110  RH  062%=      5-min Rain = 0
KASR 230235Z 15011KT 19/11 A2995 RMK A01 T01880110  RH  062%=      5-min Rain = 0
KASR 230240Z 15012KT 19/11 A2994 RMK A01 T01880110  RH  061%=      5-min Rain = 0
KASR 230245Z 15012KT 19/11 A2994 RMK A01 T01880110  RH  062%=      5-min Rain = 0
KASR 230250Z 15012G17KT 19/11 A2994 RMK A01 T01880109  RH  061%=      5-min Rain = 0
KASR 230255Z 15012KT 19/11 A2994 RMK A01 T01870109  RH  061%=      5-min Rain = 0
KASR 230300Z 15012G17KT 19/11 A2994 RMK A01 T01860109  RH  062%=      5-min Rain = 0
KASR 230305Z 15011KT 19/11 A2994 RMK A01 T01850109  RH  062%=      5-min Rain = 0
KASR 230310Z 15010G15KT 18/11 A2994 RMK A01 T01820109  RH  063%=      5-min Rain = 0
KASR 230315Z 15010KT 18/11 A2994 RMK A01 T01810109  RH  064%=      5-min Rain = 0
KASR 230320Z 15011G16KT 18/11 A2995 RMK A01 T01810108  RH  064%=      5-min Rain = 0
KASR 230325Z 15011KT 18/11 A2995 RMK A01 T01800108  RH  064%=      5-min Rain = 0
KASR 230330Z 15011KT 18/11 A2995 RMK A01 T01790108  RH  064%=      5-min Rain = 0
KASR 230335Z 15011KT 18/11 A2995 RMK A01 T01780108  RH  065%=      5-min Rain = 0
KASR 230340Z 15011KT 18/11 A2996 RMK A01 T01780108  RH  065%=      5-min Rain = 0
KASR 230345Z 15011KT 18/11 A2996 RMK A01 T01770108  RH  065%=      5-min Rain = 0
KASR 230350Z 15012G17KT 18/11 A2996 RMK A01 T01770108  RH  065%=      5-min Rain = 0
KASR 230355Z 15012G17KT 18/11 A2996 RMK A01 T01770109  RH  065%=      5-min Rain = 0
KASR 230400Z 15010KT 18/11 A2996 RMK A01 T01760109  RH  066%=      5-min Rain = 0
KASR 230405Z 15010KT 17/11 A2996 RMK A01 T01740109  RH  067%=      5-min Rain = 0
KASR 230410Z 16011KT 17/11 A2996 RMK A01 T01740110  RH  067%=      5-min Rain = 0
KASR 230415Z 16011KT 17/11 A2996 RMK A01 T01740110  RH  067%=      5-min Rain = 0
KASR 230420Z 16010KT 17/11 A2996 RMK A01 T01730110  RH  068%=      5-min Rain = 0
KASR 230425Z 16011KT 17/11 A2996 RMK A01 T01730110  RH  068%=      5-min Rain = 0
KASR 230430Z 15011KT 17/11 A2996 RMK A01 T01730111  RH  068%=      5-min Rain = 0
KASR 230435Z 15011G16KT 17/11 A2996 RMK A01 T01720111  RH  068%=      5-min Rain = 0
KASR 230440Z 15010G15KT 17/11 A2996 RMK A01 T01720111  RH  069%=      5-min Rain = 0
KASR 230445Z 15010KT 17/11 A2996 RMK A01 T01710111  RH  069%=      5-min Rain = 0
KASR 230450Z 15011G16KT 17/11 A2996 RMK A01 T01720112  RH  069%=      5-min Rain = 0
KASR 230455Z 15011KT 17/11 A2996 RMK A01 T01720112  RH  069%=      5-min Rain = 0

Page generated in 0.0094 seconds.